sensor_id;sensor_type;location;lat;lon;timestamp;P1;durP1;ratioP1;P2;durP2;ratioP2
32934;SDS011;19292;51.532;7.650;2024-03-02T00:01:14;2.95;;;2.75;;
32934;SDS011;19292;51.532;7.650;2024-03-02T00:03:39;2.15;;;2.03;;
32934;SDS011;19292;51.532;7.650;2024-03-02T00:06:07;1.27;;;1.27;;
32934;SDS011;19292;51.532;7.650;2024-03-02T00:08:38;0.82;;;0.82;;
32934;SDS011;19292;51.532;7.650;2024-03-02T00:11:06;0.82;;;0.82;;
32934;SDS011;19292;51.532;7.650;2024-03-02T00:13:36;2.17;;;1.58;;
32934;SDS011;19292;51.532;7.650;2024-03-02T00:16:04;0.68;;;0.68;;
32934;SDS011;19292;51.532;7.650;2024-03-02T00:18:31;1.00;;;1.00;;
32934;SDS011;19292;51.532;7.650;2024-03-02T00:21:00;4.65;;;1.50;;
32934;SDS011;19292;51.532;7.650;2024-03-02T00:23:29;1.25;;;1.15;;
32934;SDS011;19292;51.532;7.650;2024-03-02T00:25:56;1.17;;;1.17;;
32934;SDS011;19292;51.532;7.650;2024-03-02T00:28:25;1.50;;;1.10;;
32934;SDS011;19292;51.532;7.650;2024-03-02T00:30:58;1.00;;;1.00;;
32934;SDS011;19292;51.532;7.650;2024-03-02T00:33:27;2.13;;;1.50;;
32934;SDS011;19292;51.532;7.650;2024-03-02T00:35:56;1.48;;;1.38;;
32934;SDS011;19292;51.532;7.650;2024-03-02T00:38:24;2.30;;;1.13;;
32934;SDS011;19292;51.532;7.650;2024-03-02T00:40:49;2.17;;;1.10;;
32934;SDS011;19292;51.532;7.650;2024-03-02T00:46:06;1.67;;;1.40;;
32934;SDS011;19292;51.532;7.650;2024-03-02T00:48:32;1.45;;;1.20;;
32934;SDS011;19292;51.532;7.650;2024-03-02T00:51:01;2.25;;;1.25;;
32934;SDS011;19292;51.532;7.650;2024-03-02T00:53:31;1.15;;;1.05;;
32934;SDS011;19292;51.532;7.650;2024-03-02T00:56:00;2.20;;;1.40;;
32934;SDS011;19292;51.532;7.650;2024-03-02T00:58:28;1.48;;;1.38;;
32934;SDS011;19292;51.532;7.650;2024-03-02T01:00:53;0.80;;;0.80;;
32934;SDS011;19292;51.532;7.650;2024-03-02T01:03:21;1.50;;;1.33;;
32934;SDS011;19292;51.532;7.650;2024-03-02T01:05:46;1.33;;;1.27;;
32934;SDS011;19292;51.532;7.650;2024-03-02T01:08:14;1.50;;;1.40;;
32934;SDS011;19292;51.532;7.650;2024-03-02T01:10:40;1.23;;;1.10;;
32934;SDS011;19292;51.532;7.650;2024-03-02T01:13:05;0.98;;;0.90;;
32934;SDS011;19292;51.532;7.650;2024-03-02T01:15:31;2.22;;;1.33;;
32934;SDS011;19292;51.532;7.650;2024-03-02T01:17:58;1.77;;;0.93;;
32934;SDS011;19292;51.532;7.650;2024-03-02T01:20:26;2.00;;;1.23;;
32934;SDS011;19292;51.532;7.650;2024-03-02T01:22:54;1.65;;;1.20;;
32934;SDS011;19292;51.532;7.650;2024-03-02T01:25:22;3.45;;;1.60;;
32934;SDS011;19292;51.532;7.650;2024-03-02T01:27:50;2.85;;;1.65;;
32934;SDS011;19292;51.532;7.650;2024-03-02T01:30:15;1.85;;;1.75;;
32934;SDS011;19292;51.532;7.650;2024-03-02T01:32:41;2.95;;;2.78;;
32934;SDS011;19292;51.532;7.650;2024-03-02T01:35:06;2.33;;;2.22;;
32934;SDS011;19292;51.532;7.650;2024-03-02T01:37:36;3.35;;;3.15;;
32934;SDS011;19292;51.532;7.650;2024-03-02T01:40:04;4.05;;;3.75;;
32934;SDS011;19292;51.532;7.650;2024-03-02T01:42:36;5.90;;;5.60;;
32934;SDS011;19292;51.532;7.650;2024-03-02T01:47:33;3.35;;;3.25;;
32934;SDS011;19292;51.532;7.650;2024-03-02T01:49:58;3.58;;;3.38;;
32934;SDS011;19292;51.532;7.650;2024-03-02T01:52:24;3.78;;;3.67;;
32934;SDS011;19292;51.532;7.650;2024-03-02T01:54:49;3.80;;;3.60;;
32934;SDS011;19292;51.532;7.650;2024-03-02T01:57:17;3.35;;;3.25;;
32934;SDS011;19292;51.532;7.650;2024-03-02T01:59:43;3.33;;;3.13;;
32934;SDS011;19292;51.532;7.650;2024-03-02T02:02:12;3.00;;;2.90;;
32934;SDS011;19292;51.532;7.650;2024-03-02T02:04:40;3.25;;;3.05;;
32934;SDS011;19292;51.532;7.650;2024-03-02T02:07:05;2.47;;;2.38;;
32934;SDS011;19292;51.532;7.650;2024-03-02T02:09:35;2.92;;;2.83;;
32934;SDS011;19292;51.532;7.650;2024-03-02T02:12:01;3.10;;;2.90;;
32934;SDS011;19292;51.532;7.650;2024-03-02T02:14:27;2.15;;;2.05;;
32934;SDS011;19292;51.532;7.650;2024-03-02T02:16:53;1.45;;;1.42;;
32934;SDS011;19292;51.532;7.650;2024-03-02T02:19:19;1.05;;;1.05;;
32934;SDS011;19292;51.532;7.650;2024-03-02T02:21:46;1.50;;;1.40;;
32934;SDS011;19292;51.532;7.650;2024-03-02T02:24:14;1.83;;;1.42;;
32934;SDS011;19292;51.532;7.650;2024-03-02T02:26:40;1.50;;;1.40;;
32934;SDS011;19292;51.532;7.650;2024-03-02T02:29:05;1.48;;;1.25;;
32934;SDS011;19292;51.532;7.650;2024-03-02T02:31:39;1.25;;;1.15;;
32934;SDS011;19292;51.532;7.650;2024-03-02T02:34:08;1.17;;;0.93;;
32934;SDS011;19292;51.532;7.650;2024-03-02T02:36:34;4.07;;;1.15;;
32934;SDS011;19292;51.532;7.650;2024-03-02T02:41:31;2.13;;;1.50;;
32934;SDS011;19292;51.532;7.650;2024-03-02T02:44:01;0.88;;;0.85;;
32934;SDS011;19292;51.532;7.650;2024-03-02T02:46:29;1.08;;;1.02;;
32934;SDS011;19292;51.532;7.650;2024-03-02T02:48:55;0.98;;;0.98;;
32934;SDS011;19292;51.532;7.650;2024-03-02T02:51:20;1.00;;;0.90;;
32934;SDS011;19292;51.532;7.650;2024-03-02T02:53:48;1.67;;;1.25;;
32934;SDS011;19292;51.532;7.650;2024-03-02T02:56:14;0.95;;;0.95;;
32934;SDS011;19292;51.532;7.650;2024-03-02T02:58:41;1.10;;;1.10;;
32934;SDS011;19292;51.532;7.650;2024-03-02T03:01:12;1.85;;;1.30;;
32934;SDS011;19292;51.532;7.650;2024-03-02T03:03:37;1.73;;;1.55;;
32934;SDS011;19292;51.532;7.650;2024-03-02T03:06:02;2.25;;;1.38;;
32934;SDS011;19292;51.532;7.650;2024-03-02T03:08:28;3.95;;;1.10;;
32934;SDS011;19292;51.532;7.650;2024-03-02T03:10:53;1.45;;;1.08;;
32934;SDS011;19292;51.532;7.650;2024-03-02T03:13:19;1.55;;;1.42;;
32934;SDS011;19292;51.532;7.650;2024-03-02T03:15:47;1.20;;;1.20;;
32934;SDS011;19292;51.532;7.650;2024-03-02T03:18:15;1.20;;;1.10;;
32934;SDS011;19292;51.532;7.650;2024-03-02T03:20:42;1.17;;;1.17;;
32934;SDS011;19292;51.532;7.650;2024-03-02T03:23:07;2.08;;;1.00;;
32934;SDS011;19292;51.532;7.650;2024-03-02T03:25:40;1.67;;;1.52;;
32934;SDS011;19292;51.532;7.650;2024-03-02T03:28:06;1.70;;;1.55;;
32934;SDS011;19292;51.532;7.650;2024-03-02T03:30:31;1.00;;;1.00;;
32934;SDS011;19292;51.532;7.650;2024-03-02T03:32:56;0.93;;;0.93;;
32934;SDS011;19292;51.532;7.650;2024-03-02T03:35:22;1.67;;;1.58;;
32934;SDS011;19292;51.532;7.650;2024-03-02T03:37:50;1.60;;;1.50;;
32934;SDS011;19292;51.532;7.650;2024-03-02T03:40:17;0.95;;;0.95;;
32934;SDS011;19292;51.532;7.650;2024-03-02T03:42:43;5.05;;;1.35;;
32934;SDS011;19292;51.532;7.650;2024-03-02T03:45:11;2.95;;;1.00;;
32934;SDS011;19292;51.532;7.650;2024-03-02T03:47:38;1.13;;;1.00;;
32934;SDS011;19292;51.532;7.650;2024-03-02T03:57:00;1.00;;;1.00;;
32934;SDS011;19292;51.532;7.650;2024-03-02T03:59:26;0.80;;;0.80;;
32934;SDS011;19292;51.532;7.650;2024-03-02T04:01:51;0.80;;;0.73;;
32934;SDS011;19292;51.532;7.650;2024-03-02T04:04:19;0.70;;;0.70;;
32934;SDS011;19292;51.532;7.650;2024-03-02T04:06:46;1.30;;;0.90;;
32934;SDS011;19292;51.532;7.650;2024-03-02T04:09:14;1.30;;;1.20;;
32934;SDS011;19292;51.532;7.650;2024-03-02T04:11:42;0.93;;;0.93;;
32934;SDS011;19292;51.532;7.650;2024-03-02T04:14:15;3.88;;;0.85;;
32934;SDS011;19292;51.532;7.650;2024-03-02T04:16:45;0.80;;;0.80;;
32934;SDS011;19292;51.532;7.650;2024-03-02T04:19:11;1.67;;;0.85;;
32934;SDS011;19292;51.532;7.650;2024-03-02T04:21:38;10.80;;;2.50;;
32934;SDS011;19292;51.532;7.650;2024-03-02T04:24:04;1.45;;;1.42;;
32934;SDS011;19292;51.532;7.650;2024-03-02T04:26:31;1.73;;;1.63;;
32934;SDS011;19292;51.532;7.650;2024-03-02T04:28:59;2.38;;;2.10;;
32934;SDS011;19292;51.532;7.650;2024-03-02T04:31:25;0.85;;;0.85;;
32934;SDS011;19292;51.532;7.650;2024-03-02T04:33:50;1.35;;;1.23;;
32934;SDS011;19292;51.532;7.650;2024-03-02T04:36:19;3.00;;;1.50;;
32934;SDS011;19292;51.532;7.650;2024-03-02T04:38:47;2.60;;;1.00;;
32934;SDS011;19292;51.532;7.650;2024-03-02T04:41:13;2.58;;;1.15;;
32934;SDS011;19292;51.532;7.650;2024-03-02T04:43:40;0.82;;;0.82;;
32934;SDS011;19292;51.532;7.650;2024-03-02T04:46:07;2.70;;;1.00;;
32934;SDS011;19292;51.532;7.650;2024-03-02T04:48:34;0.95;;;0.80;;
32934;SDS011;19292;51.532;7.650;2024-03-02T04:51:02;0.95;;;0.95;;
32934;SDS011;19292;51.532;7.650;2024-03-02T04:53:32;2.53;;;1.77;;
32934;SDS011;19292;51.532;7.650;2024-03-02T04:56:00;2.60;;;2.40;;
32934;SDS011;19292;51.532;7.650;2024-03-02T04:58:46;2.17;;;1.90;;
32934;SDS011;19292;51.532;7.650;2024-03-02T05:01:14;2.58;;;2.42;;
32934;SDS011;19292;51.532;7.650;2024-03-02T05:03:44;2.07;;;1.67;;
32934;SDS011;19292;51.532;7.650;2024-03-02T05:06:10;3.45;;;3.25;;
32934;SDS011;19292;51.532;7.650;2024-03-02T05:08:38;2.83;;;2.70;;
32934;SDS011;19292;51.532;7.650;2024-03-02T05:11:03;8.48;;;4.40;;
32934;SDS011;19292;51.532;7.650;2024-03-02T05:13:52;2.60;;;2.50;;
32934;SDS011;19292;51.532;7.650;2024-03-02T05:16:20;3.55;;;3.35;;
32934;SDS011;19292;51.532;7.650;2024-03-02T05:18:45;4.13;;;3.88;;
32934;SDS011;19292;51.532;7.650;2024-03-02T05:21:12;6.90;;;3.33;;
32934;SDS011;19292;51.532;7.650;2024-03-02T05:23:37;3.75;;;3.60;;
32934;SDS011;19292;51.532;7.650;2024-03-02T05:26:03;2.50;;;2.40;;
32934;SDS011;19292;51.532;7.650;2024-03-02T05:28:31;2.72;;;2.53;;
32934;SDS011;19292;51.532;7.650;2024-03-02T05:30:56;3.47;;;3.33;;
32934;SDS011;19292;51.532;7.650;2024-03-02T05:33:24;3.85;;;3.65;;
32934;SDS011;19292;51.532;7.650;2024-03-02T05:35:49;2.40;;;2.30;;
32934;SDS011;19292;51.532;7.650;2024-03-02T05:38:15;3.80;;;3.50;;
32934;SDS011;19292;51.532;7.650;2024-03-02T05:40:41;4.22;;;4.03;;
32934;SDS011;19292;51.532;7.650;2024-03-02T05:43:06;3.70;;;2.92;;
32934;SDS011;19292;51.532;7.650;2024-03-02T05:45:32;2.95;;;2.00;;
32934;SDS011;19292;51.532;7.650;2024-03-02T05:47:57;1.40;;;1.30;;
32934;SDS011;19292;51.532;7.650;2024-03-02T05:50:25;1.55;;;1.45;;
32934;SDS011;19292;51.532;7.650;2024-03-02T05:52:50;1.33;;;1.25;;
32934;SDS011;19292;51.532;7.650;2024-03-02T05:55:15;2.40;;;2.08;;
32934;SDS011;19292;51.532;7.650;2024-03-02T05:57:41;1.58;;;1.00;;
32934;SDS011;19292;51.532;7.650;2024-03-02T06:00:11;1.77;;;1.40;;
32934;SDS011;19292;51.532;7.650;2024-03-02T06:02:41;1.48;;;1.13;;
32934;SDS011;19292;51.532;7.650;2024-03-02T06:05:09;1.15;;;1.05;;
32934;SDS011;19292;51.532;7.650;2024-03-02T06:07:40;1.35;;;1.13;;
32934;SDS011;19292;51.532;7.650;2024-03-02T06:10:06;2.30;;;1.35;;
32934;SDS011;19292;51.532;7.650;2024-03-02T06:12:37;3.03;;;0.95;;
32934;SDS011;19292;51.532;7.650;2024-03-02T06:15:03;1.02;;;0.98;;
32934;SDS011;19292;51.532;7.650;2024-03-02T06:17:29;2.55;;;0.90;;
32934;SDS011;19292;51.532;7.650;2024-03-02T06:19:56;8.15;;;1.52;;
32934;SDS011;19292;51.532;7.650;2024-03-02T06:22:24;2.13;;;1.23;;
32934;SDS011;19292;51.532;7.650;2024-03-02T06:24:50;1.90;;;1.02;;
32934;SDS011;19292;51.532;7.650;2024-03-02T06:27:20;3.05;;;1.23;;
32934;SDS011;19292;51.532;7.650;2024-03-02T06:29:46;4.13;;;1.00;;
32934;SDS011;19292;51.532;7.650;2024-03-02T06:32:16;2.13;;;1.48;;
32934;SDS011;19292;51.532;7.650;2024-03-02T06:34:43;2.13;;;1.83;;
32934;SDS011;19292;51.532;7.650;2024-03-02T06:37:13;1.65;;;1.23;;
32934;SDS011;19292;51.532;7.650;2024-03-02T06:39:41;1.17;;;1.15;;
32934;SDS011;19292;51.532;7.650;2024-03-02T06:42:06;2.72;;;1.70;;
32934;SDS011;19292;51.532;7.650;2024-03-02T06:44:32;2.83;;;2.53;;
32934;SDS011;19292;51.532;7.650;2024-03-02T06:46:57;1.55;;;1.45;;
32934;SDS011;19292;51.532;7.650;2024-03-02T06:49:28;1.52;;;1.45;;
32934;SDS011;19292;51.532;7.650;2024-03-02T06:51:55;2.05;;;1.48;;
32934;SDS011;19292;51.532;7.650;2024-03-02T06:54:21;2.92;;;2.03;;
32934;SDS011;19292;51.532;7.650;2024-03-02T06:56:54;6.50;;;2.20;;
32934;SDS011;19292;51.532;7.650;2024-03-02T06:59:19;2.17;;;1.95;;
32934;SDS011;19292;51.532;7.650;2024-03-02T07:01:47;3.88;;;2.65;;
32934;SDS011;19292;51.532;7.650;2024-03-02T07:04:14;3.20;;;2.30;;
32934;SDS011;19292;51.532;7.650;2024-03-02T07:06:42;3.50;;;2.55;;
32934;SDS011;19292;51.532;7.650;2024-03-02T07:09:07;3.38;;;2.50;;
32934;SDS011;19292;51.532;7.650;2024-03-02T07:11:36;4.07;;;2.65;;
32934;SDS011;19292;51.532;7.650;2024-03-02T07:14:01;3.97;;;2.13;;
32934;SDS011;19292;51.532;7.650;2024-03-02T07:16:26;3.05;;;1.45;;
32934;SDS011;19292;51.532;7.650;2024-03-02T07:18:57;2.78;;;1.45;;
32934;SDS011;19292;51.532;7.650;2024-03-02T07:21:26;2.25;;;1.73;;
32934;SDS011;19292;51.532;7.650;2024-03-02T07:23:54;2.35;;;1.90;;
32934;SDS011;19292;51.532;7.650;2024-03-02T07:26:23;3.70;;;1.77;;
32934;SDS011;19292;51.532;7.650;2024-03-02T07:28:53;7.40;;;2.78;;
32934;SDS011;19292;51.532;7.650;2024-03-02T07:31:18;3.75;;;3.45;;
32934;SDS011;19292;51.532;7.650;2024-03-02T07:33:44;3.75;;;3.45;;
32934;SDS011;19292;51.532;7.650;2024-03-02T07:36:13;3.55;;;3.35;;
32934;SDS011;19292;51.532;7.650;2024-03-02T07:38:44;3.60;;;3.35;;
32934;SDS011;19292;51.532;7.650;2024-03-02T07:41:09;3.53;;;2.88;;
32934;SDS011;19292;51.532;7.650;2024-03-02T07:43:37;2.90;;;2.70;;
32934;SDS011;19292;51.532;7.650;2024-03-02T07:46:04;3.05;;;2.85;;
32934;SDS011;19292;51.532;7.650;2024-03-02T07:48:35;3.88;;;2.88;;
32934;SDS011;19292;51.532;7.650;2024-03-02T07:51:02;2.78;;;2.58;;
32934;SDS011;19292;51.532;7.650;2024-03-02T07:53:28;5.80;;;3.63;;
32934;SDS011;19292;51.532;7.650;2024-03-02T07:55:53;3.28;;;3.08;;
32934;SDS011;19292;51.532;7.650;2024-03-02T07:58:19;4.03;;;3.60;;
32934;SDS011;19292;51.532;7.650;2024-03-02T08:00:44;4.07;;;3.78;;
32934;SDS011;19292;51.532;7.650;2024-03-02T08:03:10;3.90;;;3.60;;
32934;SDS011;19292;51.532;7.650;2024-03-02T08:05:36;6.28;;;3.45;;
32934;SDS011;19292;51.532;7.650;2024-03-02T08:08:06;8.07;;;2.45;;
32934;SDS011;19292;51.532;7.650;2024-03-02T08:10:34;3.45;;;2.85;;
32934;SDS011;19292;51.532;7.650;2024-03-02T08:12:59;2.42;;;2.10;;
32934;SDS011;19292;51.532;7.650;2024-03-02T08:15:25;4.82;;;2.60;;
32934;SDS011;19292;51.532;7.650;2024-03-02T08:17:52;3.15;;;1.92;;
32934;SDS011;19292;51.532;7.650;2024-03-02T08:20:18;2.55;;;1.73;;
32934;SDS011;19292;51.532;7.650;2024-03-02T08:22:45;3.60;;;2.28;;
32934;SDS011;19292;51.532;7.650;2024-03-02T08:25:18;4.00;;;2.03;;
32934;SDS011;19292;51.532;7.650;2024-03-02T08:27:43;3.08;;;2.10;;
32934;SDS011;19292;51.532;7.650;2024-03-02T08:30:11;3.95;;;1.80;;
32934;SDS011;19292;51.532;7.650;2024-03-02T08:32:42;3.58;;;2.35;;
32934;SDS011;19292;51.532;7.650;2024-03-02T08:35:09;1.35;;;1.23;;
32934;SDS011;19292;51.532;7.650;2024-03-02T08:37:35;3.55;;;2.05;;
32934;SDS011;19292;51.532;7.650;2024-03-02T08:40:05;1.85;;;1.55;;
32934;SDS011;19292;51.532;7.650;2024-03-02T08:42:32;2.83;;;2.10;;
32934;SDS011;19292;51.532;7.650;2024-03-02T08:45:00;2.08;;;1.75;;
32934;SDS011;19292;51.532;7.650;2024-03-02T08:47:26;2.00;;;1.33;;
32934;SDS011;19292;51.532;7.650;2024-03-02T08:49:56;3.60;;;2.80;;
32934;SDS011;19292;51.532;7.650;2024-03-02T08:52:21;1.75;;;1.65;;
32934;SDS011;19292;51.532;7.650;2024-03-02T08:54:49;5.35;;;4.95;;
32934;SDS011;19292;51.532;7.650;2024-03-02T08:57:16;5.60;;;5.18;;
32934;SDS011;19292;51.532;7.650;2024-03-02T08:59:41;6.68;;;6.10;;
32934;SDS011;19292;51.532;7.650;2024-03-02T09:02:09;4.20;;;3.83;;
32934;SDS011;19292;51.532;7.650;2024-03-02T09:04:35;4.78;;;4.38;;
32934;SDS011;19292;51.532;7.650;2024-03-02T09:07:03;4.15;;;3.95;;
32934;SDS011;19292;51.532;7.650;2024-03-02T09:09:28;5.35;;;4.95;;
32934;SDS011;19292;51.532;7.650;2024-03-02T09:11:53;4.30;;;3.97;;
32934;SDS011;19292;51.532;7.650;2024-03-02T09:14:22;2.78;;;2.58;;
32934;SDS011;19292;51.532;7.650;2024-03-02T09:16:48;3.95;;;3.67;;
32934;SDS011;19292;51.532;7.650;2024-03-02T09:19:18;2.83;;;2.63;;
32934;SDS011;19292;51.532;7.650;2024-03-02T09:21:43;3.67;;;3.03;;
32934;SDS011;19292;51.532;7.650;2024-03-02T09:24:09;2.55;;;1.85;;
32934;SDS011;19292;51.532;7.650;2024-03-02T09:26:37;1.70;;;1.55;;
32934;SDS011;19292;51.532;7.650;2024-03-02T09:29:05;5.78;;;5.25;;
32934;SDS011;19292;51.532;7.650;2024-03-02T09:31:30;6.43;;;6.13;;
32934;SDS011;19292;51.532;7.650;2024-03-02T09:33:58;7.43;;;6.97;;
32934;SDS011;19292;51.532;7.650;2024-03-02T09:36:24;5.35;;;5.05;;
32934;SDS011;19292;51.532;7.650;2024-03-02T09:38:49;6.00;;;1.75;;
32934;SDS011;19292;51.532;7.650;2024-03-02T09:41:14;1.50;;;1.40;;
32934;SDS011;19292;51.532;7.650;2024-03-02T09:43:40;0.98;;;0.82;;
32934;SDS011;19292;51.532;7.650;2024-03-02T09:46:08;2.55;;;2.35;;
32934;SDS011;19292;51.532;7.650;2024-03-02T09:48:37;2.22;;;1.95;;
32934;SDS011;19292;51.532;7.650;2024-03-02T09:51:03;2.13;;;2.03;;
32934;SDS011;19292;51.532;7.650;2024-03-02T09:53:34;2.65;;;2.55;;
32934;SDS011;19292;51.532;7.650;2024-03-02T09:56:02;2.05;;;1.30;;
32934;SDS011;19292;51.532;7.650;2024-03-02T09:58:28;2.92;;;2.72;;
32934;SDS011;19292;51.532;7.650;2024-03-02T10:00:58;2.72;;;2.63;;
32934;SDS011;19292;51.532;7.650;2024-03-02T10:03:26;2.55;;;2.45;;
32934;SDS011;19292;51.532;7.650;2024-03-02T10:05:52;4.07;;;2.95;;
32934;SDS011;19292;51.532;7.650;2024-03-02T10:08:17;2.25;;;2.15;;
32934;SDS011;19292;51.532;7.650;2024-03-02T10:10:42;2.60;;;2.50;;
32934;SDS011;19292;51.532;7.650;2024-03-02T10:13:11;2.72;;;2.45;;
32934;SDS011;19292;51.532;7.650;2024-03-02T10:15:37;3.00;;;2.80;;
32934;SDS011;19292;51.532;7.650;2024-03-02T10:18:12;3.33;;;3.13;;
32934;SDS011;19292;51.532;7.650;2024-03-02T10:20:38;2.33;;;2.20;;
32934;SDS011;19292;51.532;7.650;2024-03-02T10:23:09;3.20;;;2.40;;
32934;SDS011;19292;51.532;7.650;2024-03-02T10:25:35;1.70;;;1.23;;
32934;SDS011;19292;51.532;7.650;2024-03-02T10:28:01;4.75;;;4.45;;
32934;SDS011;19292;51.532;7.650;2024-03-02T10:30:31;1.20;;;1.20;;
32934;SDS011;19292;51.532;7.650;2024-03-02T10:32:59;0.90;;;0.90;;
32934;SDS011;19292;51.532;7.650;2024-03-02T10:35:28;1.27;;;1.27;;
32934;SDS011;19292;51.532;7.650;2024-03-02T10:37:53;2.40;;;2.30;;
32934;SDS011;19292;51.532;7.650;2024-03-02T10:40:24;1.25;;;1.25;;
32934;SDS011;19292;51.532;7.650;2024-03-02T10:42:51;1.80;;;1.08;;
32934;SDS011;19292;51.532;7.650;2024-03-02T10:45:19;1.30;;;1.30;;
32934;SDS011;19292;51.532;7.650;2024-03-02T10:50:15;2.40;;;2.20;;
32934;SDS011;19292;51.532;7.650;2024-03-02T10:52:41;1.58;;;1.48;;
32934;SDS011;19292;51.532;7.650;2024-03-02T10:55:11;2.15;;;2.00;;
32934;SDS011;19292;51.532;7.650;2024-03-02T10:57:53;1.60;;;1.60;;
32934;SDS011;19292;51.532;7.650;2024-03-02T11:00:24;1.88;;;1.77;;
32934;SDS011;19292;51.532;7.650;2024-03-02T11:02:59;1.90;;;1.80;;
32934;SDS011;19292;51.532;7.650;2024-03-02T11:05:31;2.45;;;2.35;;
32934;SDS011;19292;51.532;7.650;2024-03-02T11:08:06;2.50;;;2.30;;
32934;SDS011;19292;51.532;7.650;2024-03-02T11:10:51;2.40;;;2.30;;
32934;SDS011;19292;51.532;7.650;2024-03-02T11:13:24;2.33;;;2.22;;
32934;SDS011;19292;51.532;7.650;2024-03-02T11:15:55;1.15;;;1.15;;
32934;SDS011;19292;51.532;7.650;2024-03-02T11:18:33;1.23;;;0.75;;
32934;SDS011;19292;51.532;7.650;2024-03-02T11:21:03;0.93;;;0.93;;
32934;SDS011;19292;51.532;7.650;2024-03-02T11:23:34;0.50;;;0.50;;
32934;SDS011;19292;51.532;7.650;2024-03-02T11:28:48;0.50;;;0.50;;
32934;SDS011;19292;51.532;7.650;2024-03-02T11:31:14;0.88;;;0.88;;
32934;SDS011;19292;51.532;7.650;2024-03-02T11:33:39;0.70;;;0.70;;
32934;SDS011;19292;51.532;7.650;2024-03-02T11:36:07;1.80;;;1.70;;
32934;SDS011;19292;51.532;7.650;2024-03-02T11:38:35;1.40;;;1.30;;
32934;SDS011;19292;51.532;7.650;2024-03-02T11:41:07;0.80;;;0.80;;
32934;SDS011;19292;51.532;7.650;2024-03-02T11:43:41;0.73;;;0.73;;
32934;SDS011;19292;51.532;7.650;2024-03-02T11:46:09;0.43;;;0.43;;
32934;SDS011;19292;51.532;7.650;2024-03-02T11:48:38;0.40;;;0.40;;
32934;SDS011;19292;51.532;7.650;2024-03-02T11:51:06;0.50;;;0.50;;
32934;SDS011;19292;51.532;7.650;2024-03-02T11:53:34;0.60;;;0.60;;
32934;SDS011;19292;51.532;7.650;2024-03-02T11:56:03;0.70;;;0.70;;
32934;SDS011;19292;51.532;7.650;2024-03-02T11:58:34;0.60;;;0.60;;
32934;SDS011;19292;51.532;7.650;2024-03-02T12:01:03;0.57;;;0.57;;
32934;SDS011;19292;51.532;7.650;2024-03-02T12:03:34;0.70;;;0.70;;
32934;SDS011;19292;51.532;7.650;2024-03-02T12:06:00;0.50;;;0.50;;
32934;SDS011;19292;51.532;7.650;2024-03-02T12:08:30;0.90;;;0.88;;
32934;SDS011;19292;51.532;7.650;2024-03-02T12:10:58;0.77;;;0.77;;
32934;SDS011;19292;51.532;7.650;2024-03-02T12:13:24;1.15;;;0.95;;
32934;SDS011;19292;51.532;7.650;2024-03-02T12:15:52;0.70;;;0.70;;
32934;SDS011;19292;51.532;7.650;2024-03-02T12:18:19;1.17;;;1.10;;
32934;SDS011;19292;51.532;7.650;2024-03-02T12:20:44;0.88;;;0.88;;
32934;SDS011;19292;51.532;7.650;2024-03-02T12:23:15;0.85;;;0.85;;
32934;SDS011;19292;51.532;7.650;2024-03-02T12:25:41;0.98;;;0.98;;
32934;SDS011;19292;51.532;7.650;2024-03-02T12:28:11;0.43;;;0.43;;
32934;SDS011;19292;51.532;7.650;2024-03-02T12:30:36;0.70;;;0.70;;
32934;SDS011;19292;51.532;7.650;2024-03-02T12:33:01;0.60;;;0.60;;
32934;SDS011;19292;51.532;7.650;2024-03-02T12:35:27;0.40;;;0.40;;
32934;SDS011;19292;51.532;7.650;2024-03-02T12:37:53;0.40;;;0.40;;
32934;SDS011;19292;51.532;7.650;2024-03-02T12:42:49;0.47;;;0.47;;
32934;SDS011;19292;51.532;7.650;2024-03-02T12:45:19;0.88;;;0.70;;
32934;SDS011;19292;51.532;7.650;2024-03-02T12:47:51;0.40;;;0.40;;
32934;SDS011;19292;51.532;7.650;2024-03-02T12:50:17;1.00;;;0.40;;
32934;SDS011;19292;51.532;7.650;2024-03-02T12:52:42;0.30;;;0.30;;
32934;SDS011;19292;51.532;7.650;2024-03-02T12:55:07;0.40;;;0.40;;
32934;SDS011;19292;51.532;7.650;2024-03-02T12:57:39;0.68;;;0.68;;
32934;SDS011;19292;51.532;7.650;2024-03-02T13:00:07;1.55;;;1.05;;
32934;SDS011;19292;51.532;7.650;2024-03-02T13:02:43;0.60;;;0.60;;
32934;SDS011;19292;51.532;7.650;2024-03-02T13:05:13;1.17;;;0.85;;
32934;SDS011;19292;51.532;7.650;2024-03-02T13:07:41;0.73;;;0.73;;
32934;SDS011;19292;51.532;7.650;2024-03-02T13:10:10;0.73;;;0.73;;
32934;SDS011;19292;51.532;7.650;2024-03-02T13:12:35;0.52;;;0.52;;
32934;SDS011;19292;51.532;7.650;2024-03-02T13:15:01;0.40;;;0.40;;
32934;SDS011;19292;51.532;7.650;2024-03-02T13:17:30;0.50;;;0.50;;
32934;SDS011;19292;51.532;7.650;2024-03-02T13:19:58;0.50;;;0.50;;
32934;SDS011;19292;51.532;7.650;2024-03-02T13:22:27;0.80;;;0.80;;
32934;SDS011;19292;51.532;7.650;2024-03-02T13:25:00;0.85;;;0.85;;
32934;SDS011;19292;51.532;7.650;2024-03-02T13:27:26;0.47;;;0.47;;
32934;SDS011;19292;51.532;7.650;2024-03-02T13:29:59;1.38;;;0.70;;
32934;SDS011;19292;51.532;7.650;2024-03-02T13:32:24;1.30;;;0.80;;
32934;SDS011;19292;51.532;7.650;2024-03-02T13:34:53;0.80;;;0.63;;
32934;SDS011;19292;51.532;7.650;2024-03-02T13:37:21;1.05;;;1.00;;
32934;SDS011;19292;51.532;7.650;2024-03-02T13:39:49;2.90;;;0.63;;
32934;SDS011;19292;51.532;7.650;2024-03-02T13:42:14;0.60;;;0.60;;
32934;SDS011;19292;51.532;7.650;2024-03-02T13:44:44;0.57;;;0.55;;
32934;SDS011;19292;51.532;7.650;2024-03-02T13:47:14;0.53;;;0.50;;
32934;SDS011;19292;51.532;7.650;2024-03-02T13:49:42;0.45;;;0.40;;
32934;SDS011;19292;51.532;7.650;2024-03-02T13:52:11;0.55;;;0.55;;
32934;SDS011;19292;51.532;7.650;2024-03-02T13:54:41;0.30;;;0.30;;
32934;SDS011;19292;51.532;7.650;2024-03-02T13:57:07;3.28;;;0.60;;
32934;SDS011;19292;51.532;7.650;2024-03-02T13:59:33;0.57;;;0.40;;
32934;SDS011;19292;51.532;7.650;2024-03-02T14:02:02;0.57;;;0.57;;
32934;SDS011;19292;51.532;7.650;2024-03-02T14:04:36;1.13;;;0.80;;
32934;SDS011;19292;51.532;7.650;2024-03-02T14:07:05;0.40;;;0.40;;
32934;SDS011;19292;51.532;7.650;2024-03-02T14:09:35;0.55;;;0.40;;
32934;SDS011;19292;51.532;7.650;2024-03-02T14:12:01;2.40;;;0.80;;
32934;SDS011;19292;51.532;7.650;2024-03-02T14:14:27;0.55;;;0.50;;
32934;SDS011;19292;51.532;7.650;2024-03-02T14:16:55;0.98;;;0.52;;
32934;SDS011;19292;51.532;7.650;2024-03-02T14:19:30;0.57;;;0.55;;
32934;SDS011;19292;51.532;7.650;2024-03-02T14:21:58;0.40;;;0.40;;
32934;SDS011;19292;51.532;7.650;2024-03-02T14:24:26;0.70;;;0.70;;
32934;SDS011;19292;51.532;7.650;2024-03-02T14:26:53;0.40;;;0.40;;
32934;SDS011;19292;51.532;7.650;2024-03-02T14:29:18;1.38;;;1.00;;
32934;SDS011;19292;51.532;7.650;2024-03-02T14:31:44;0.57;;;0.57;;
32934;SDS011;19292;51.532;7.650;2024-03-02T14:34:13;0.47;;;0.47;;
32934;SDS011;19292;51.532;7.650;2024-03-02T14:36:38;1.02;;;0.68;;
32934;SDS011;19292;51.532;7.650;2024-03-02T14:39:04;1.30;;;0.80;;
32934;SDS011;19292;51.532;7.650;2024-03-02T14:41:33;1.63;;;0.70;;
32934;SDS011;19292;51.532;7.650;2024-03-02T14:44:00;6.32;;;0.63;;
32934;SDS011;19292;51.532;7.650;2024-03-02T14:46:26;0.93;;;0.93;;
32934;SDS011;19292;51.532;7.650;2024-03-02T14:48:51;0.88;;;0.88;;
32934;SDS011;19292;51.532;7.650;2024-03-02T14:51:19;1.55;;;0.70;;
32934;SDS011;19292;51.532;7.650;2024-03-02T14:53:44;0.95;;;0.73;;
32934;SDS011;19292;51.532;7.650;2024-03-02T14:56:10;0.65;;;0.55;;
32934;SDS011;19292;51.532;7.650;2024-03-02T14:58:40;0.73;;;0.70;;
32934;SDS011;19292;51.532;7.650;2024-03-02T15:01:08;0.52;;;0.52;;
32934;SDS011;19292;51.532;7.650;2024-03-02T15:03:36;0.82;;;0.60;;
32934;SDS011;19292;51.532;7.650;2024-03-02T15:06:03;0.43;;;0.40;;
32934;SDS011;19292;51.532;7.650;2024-03-02T15:08:32;1.00;;;0.82;;
32934;SDS011;19292;51.532;7.650;2024-03-02T15:11:00;2.85;;;0.68;;
32934;SDS011;19292;51.532;7.650;2024-03-02T15:13:26;0.57;;;0.57;;